Time;durP1;ratioP1;P1;durP2;ratioP2;P2;SDS_P1;SDS_P2;PMS_P1;PMS_P2;Temp;Humidity;BMP_temperature;BMP_pressure;BME280_temperature;BME280_humidity;BME280_pressure;Samples;Min_cycle;Max_cycle;Signal;HPM_P1;HPM_P2
2021/03/21 00:01:02;;;;;;;7.78;4.07;;;3.50;99.90;;;;;;5018832;28;20079;-60
2021/03/21 00:03:28;;;;;;;10.63;4.05;;;3.50;99.90;;;;;;5040016;28;20140;-61
2021/03/21 00:05:55;;;;;;;5.18;3.72;;;3.50;99.90;;;;;;5031299;28;20049;-63
2021/03/21 00:08:25;;;;;;;8.48;4.25;;;3.50;99.90;;;;;;5036542;28;20065;-61
2021/03/21 00:10:57;;;;;;;6.15;3.70;;;3.50;99.90;;;;;;5038153;28;20067;-61
2021/03/21 00:13:25;;;;;;;9.23;3.95;;;3.50;99.90;;;;;;5035284;28;20162;-62
2021/03/21 00:15:53;;;;;;;6.43;4.40;;;3.50;99.90;;;;;;5036394;28;20123;-63
2021/03/21 00:18:23;;;;;;;7.65;4.07;;;3.50;99.90;;;;;;5038914;28;20057;-62
2021/03/21 00:20:50;;;;;;;10.77;3.77;;;3.50;99.90;;;;;;5037183;28;20052;-62
2021/03/21 00:23:18;;;;;;;8.68;4.32;;;3.50;99.90;;;;;;5036568;28;20348;-62
2021/03/21 00:25:45;;;;;;;10.80;5.47;;;3.50;99.90;;;;;;5033988;28;20102;-64
2021/03/21 00:28:17;;;;;;;14.77;4.05;;;3.50;99.90;;;;;;5035902;28;20133;-62
2021/03/21 00:30:46;;;;;;;6.00;3.85;;;3.50;99.90;;;;;;5038322;28;20048;-63
2021/03/21 00:33:15;;;;;;;6.38;3.85;;;3.50;99.90;;;;;;5035796;28;20056;-61
2021/03/21 00:35:42;;;;;;;7.40;3.72;;;3.50;99.90;;;;;;5031987;28;20059;-61
2021/03/21 00:38:17;;;;;;;6.40;4.15;;;3.40;99.90;;;;;;5023052;28;20588;-62
2021/03/21 00:40:44;;;;;;;9.15;4.10;;;3.40;99.90;;;;;;5035014;28;20085;-61
2021/03/21 00:43:11;;;;;;;10.65;3.80;;;3.40;99.90;;;;;;5039265;28;20057;-62
2021/03/21 00:45:37;;;;;;;7.80;3.53;;;3.40;99.90;;;;;;5033413;28;20523;-61
2021/03/21 00:48:29;;;;;;;8.90;4.35;;;3.50;99.90;;;;;;5037879;28;20197;-61
2021/03/21 00:50:57;;;;;;;9.55;3.65;;;3.50;99.90;;;;;;5033977;28;20075;-62
2021/03/21 00:53:24;;;;;;;5.18;4.03;;;3.50;99.90;;;;;;5036641;28;20056;-61
2021/03/21 00:55:51;;;;;;;9.10;3.92;;;3.50;99.90;;;;;;5034469;28;20052;-64
2021/03/21 00:58:18;;;;;;;8.43;3.88;;;3.50;99.90;;;;;;5020023;28;20053;-60
2021/03/21 01:00:48;;;;;;;9.55;3.63;;;3.50;99.90;;;;;;5034365;28;20041;-63
2021/03/21 01:03:15;;;;;;;10.65;4.22;;;3.50;99.90;;;;;;5038451;28;20052;-62
2021/03/21 01:05:51;;;;;;;6.10;3.58;;;3.50;99.90;;;;;;5033544;28;20052;-62
2021/03/21 01:08:33;;;;;;;12.20;4.40;;;3.50;99.90;;;;;;5025321;28;20406;-62
2021/03/21 01:11:05;;;;;;;12.43;4.65;;;3.40;99.90;;;;;;5035023;28;20056;-63
2021/03/21 01:13:32;;;;;;;11.48;3.63;;;3.40;99.90;;;;;;5036812;28;20672;-62
2021/03/21 01:15:58;;;;;;;6.65;3.60;;;3.50;99.90;;;;;;5036223;28;21466;-61
2021/03/21 01:18:29;;;;;;;8.60;4.05;;;3.50;99.90;;;;;;5039941;28;20107;-62
2021/03/21 01:20:56;;;;;;;7.00;3.80;;;3.40;99.90;;;;;;5039741;28;20084;-64
2021/03/21 01:23:23;;;;;;;6.43;3.80;;;3.40;99.90;;;;;;5023048;28;20135;-62
2021/03/21 01:25:50;;;;;;;9.80;3.33;;;3.40;99.90;;;;;;5031346;28;21392;-61
2021/03/21 01:28:24;;;;;;;7.05;3.83;;;3.40;99.90;;;;;;5036977;28;20057;-64
2021/03/21 01:30:53;;;;;;;9.13;3.58;;;3.40;99.90;;;;;;5036820;28;20099;-61
2021/03/21 01:33:20;;;;;;;7.40;3.65;;;3.40;99.90;;;;;;5039448;28;20075;-61
2021/03/21 01:35:49;;;;;;;7.75;3.67;;;3.40;99.90;;;;;;5035854;28;20471;-63
2021/03/21 01:38:17;;;;;;;6.50;3.50;;;3.40;99.90;;;;;;5037258;28;20083;-63
2021/03/21 01:40:45;;;;;;;9.07;3.92;;;3.40;99.90;;;;;;5037781;28;20102;-61
2021/03/21 01:43:16;;;;;;;10.23;3.20;;;3.40;99.90;;;;;;5038206;28;20041;-61
2021/03/21 01:45:45;;;;;;;6.55;4.82;;;3.50;99.90;;;;;;5032359;28;20045;-64
2021/03/21 01:48:14;;;;;;;6.22;3.85;;;3.50;99.90;;;;;;5038280;28;20056;-62
2021/03/21 01:50:53;;;;;;;18.02;6.05;;;3.50;99.90;;;;;;5035338;28;20049;-62
2021/03/21 01:53:23;;;;;;;13.70;3.08;;;3.60;99.90;;;;;;5036067;28;20048;-61
2021/03/21 01:55:51;;;;;;;6.63;3.33;;;3.60;99.90;;;;;;5034999;28;20049;-63
2021/03/21 01:58:20;;;;;;;12.40;4.88;;;3.60;99.90;;;;;;5035651;28;20045;-62
2021/03/21 02:00:47;;;;;;;6.75;3.10;;;3.70;99.90;;;;;;5039298;28;20052;-62
2021/03/21 02:03:14;;;;;;;6.25;2.67;;;3.60;99.90;;;;;;5036164;28;20137;-61
2021/03/21 02:05:42;;;;;;;9.18;2.92;;;3.70;99.90;;;;;;5022095;28;20068;-62
2021/03/21 02:08:39;;;;;;;8.90;3.22;;;3.60;99.90;;;;;;5036920;28;20056;-62
2021/03/21 02:11:25;;;;;;;5.70;2.70;;;3.60;99.90;;;;;;5034990;28;20161;-64
2021/03/21 02:14:17;;;;;;;7.05;2.97;;;3.60;99.90;;;;;;5037899;28;20532;-61
2021/03/21 02:16:59;;;;;;;11.32;4.07;;;3.60;99.90;;;;;;5027046;28;20146;-62
2021/03/21 02:19:59;;;;;;;5.65;3.33;;;3.60;99.90;;;;;;5037476;28;20048;-62
2021/03/21 02:22:32;;;;;;;6.50;2.72;;;3.60;99.90;;;;;;5034199;28;20106;-64
2021/03/21 02:25:40;;;;;;;8.93;2.63;;;3.60;99.90;;;;;;5037303;28;20047;-63
2021/03/21 02:28:09;;;;;;;7.97;2.88;;;3.60;99.90;;;;;;5035083;28;20460;-61
2021/03/21 02:30:41;;;;;;;6.63;3.42;;;3.60;99.90;;;;;;5037162;28;20055;-63
2021/03/21 02:33:33;;;;;;;5.45;3.05;;;3.60;99.90;;;;;;5037739;28;20052;-62
2021/03/21 02:36:12;;;;;;;8.27;3.15;;;3.50;99.90;;;;;;5034982;28;20502;-61
2021/03/21 02:38:57;;;;;;;10.17;2.70;;;3.50;99.90;;;;;;5037581;28;20110;-61
2021/03/21 02:41:43;;;;;;;6.38;2.15;;;3.50;99.90;;;;;;5033152;28;20141;-62
2021/03/21 02:44:17;;;;;;;6.63;2.47;;;3.60;99.90;;;;;;5037195;28;20053;-61
2021/03/21 02:46:48;;;;;;;9.98;2.63;;;3.70;99.90;;;;;;5034698;28;20568;-60
2021/03/21 02:49:38;;;;;;;4.07;2.08;;;3.70;99.90;;;;;;5035775;28;20508;-64
2021/03/21 02:52:12;;;;;;;7.35;2.90;;;3.70;99.90;;;;;;5033661;28;20052;-59
2021/03/21 02:54:47;;;;;;;5.43;2.05;;;3.70;99.90;;;;;;5037684;28;20041;-61
2021/03/21 02:57:19;;;;;;;9.00;2.50;;;3.70;99.90;;;;;;5035151;28;20080;-62
2021/03/21 02:59:54;;;;;;;8.45;2.85;;;3.60;99.90;;;;;;5035511;28;20060;-62
2021/03/21 03:02:24;;;;;;;5.88;2.72;;;3.60;99.90;;;;;;5035299;28;20049;-63
2021/03/21 03:05:12;;;;;;;4.07;2.70;;;3.60;99.90;;;;;;5035484;28;20045;-61
2021/03/21 03:07:48;;;;;;;4.93;3.40;;;3.60;99.90;;;;;;5033340;28;20049;-63
2021/03/21 03:10:18;;;;;;;9.50;2.95;;;3.60;99.90;;;;;;5030208;28;20057;-60
2021/03/21 03:13:08;;;;;;;8.02;3.10;;;3.60;99.90;;;;;;5035671;28;20067;-62
2021/03/21 03:15:37;;;;;;;9.15;2.90;;;3.60;99.90;;;;;;5033120;28;20041;-62
2021/03/21 03:18:15;;;;;;;7.47;2.92;;;3.50;99.90;;;;;;5031190;28;20104;-61
2021/03/21 03:20:57;;;;;;;11.95;4.40;;;3.60;99.90;;;;;;5031501;28;20833;-61
2021/03/21 03:23:46;;;;;;;5.93;2.58;;;3.50;99.90;;;;;;5032668;28;20131;-62
2021/03/21 03:26:40;;;;;;;5.15;3.63;;;3.50;99.90;;;;;;5028984;28;20129;-61
2021/03/21 03:29:36;;;;;;;9.18;3.63;;;3.50;99.90;;;;;;5032036;28;20053;-61
2021/03/21 03:32:08;;;;;;;5.93;3.47;;;3.50;99.90;;;;;;5030288;28;20041;-62
2021/03/21 03:34:36;;;;;;;6.25;2.70;;;3.50;99.90;;;;;;5031230;28;20522;-64
2021/03/21 03:37:03;;;;;;;5.82;3.33;;;3.50;99.90;;;;;;5032137;28;20076;-64
2021/03/21 03:39:29;;;;;;;7.25;3.30;;;3.50;99.90;;;;;;5033278;28;20498;-62
2021/03/21 03:42:16;;;;;;;8.77;2.90;;;3.50;99.90;;;;;;5048701;28;20109;-61
2021/03/21 03:45:01;;;;;;;7.75;2.75;;;3.50;99.90;;;;;;5053999;28;20806;-61
2021/03/21 03:48:03;;;;;;;9.38;2.85;;;3.40;99.90;;;;;;5050153;28;20049;-60
2021/03/21 03:50:47;;;;;;;5.00;2.97;;;3.50;99.90;;;;;;5050136;28;20052;-64
2021/03/21 03:53:50;;;;;;;6.75;3.22;;;3.50;99.90;;;;;;5050939;28;20928;-61
2021/03/21 03:56:33;;;;;;;9.38;3.17;;;3.50;99.90;;;;;;5032355;28;20064;-61
2021/03/21 03:59:18;;;;;;;8.43;2.80;;;3.40;99.90;;;;;;5051207;28;20050;-63
2021/03/21 04:02:06;;;;;;;8.95;2.63;;;3.40;99.90;;;;;;5047846;28;20049;-63
2021/03/21 04:04:47;;;;;;;11.55;3.10;;;3.40;99.90;;;;;;5066744;28;20049;-59
2021/03/21 04:07:39;;;;;;;7.25;3.40;;;3.40;99.90;;;;;;5057016;28;20056;-62
2021/03/21 04:10:42;;;;;;;7.80;2.80;;;3.40;99.90;;;;;;5033413;28;20053;-61
2021/03/21 04:13:08;;;;;;;8.00;3.28;;;3.40;99.90;;;;;;5033352;28;20053;-59
2021/03/21 04:15:41;;;;;;;3.88;1.98;;;3.40;99.90;;;;;;5035565;28;20065;-60
2021/03/21 04:18:35;;;;;;;5.70;2.25;;;3.40;99.90;;;;;;5033554;28;20107;-60
2021/03/21 04:21:16;;;;;;;5.00;1.98;;;3.50;99.90;;;;;;5036382;28;20086;-61
2021/03/21 04:23:59;;;;;;;1.95;1.48;;;3.50;99.90;;;;;;5029763;28;20157;-59
2021/03/21 04:26:43;;;;;;;3.47;1.40;;;3.60;99.90;;;;;;5036475;28;20044;-63
2021/03/21 04:29:35;;;;;;;3.35;1.20;;;3.60;99.90;;;;;;5034173;28;20056;-61
2021/03/21 04:32:19;;;;;;;5.53;1.83;;;3.60;99.90;;;;;;5034558;28;20053;-62
2021/03/21 04:34:50;;;;;;;5.15;1.55;;;3.60;99.90;;;;;;5032627;28;20053;-62
2021/03/21 04:37:18;;;;;;;3.65;1.33;;;3.60;99.90;;;;;;5035939;28;20106;-61
2021/03/21 04:39:47;;;;;;;6.55;1.30;;;3.60;99.90;;;;;;5031552;28;20048;-60
2021/03/21 04:42:22;;;;;;;3.08;1.67;;;3.60;99.90;;;;;;5036155;28;20484;-62
2021/03/21 04:45:09;;;;;;;8.05;2.85;;;3.60;99.90;;;;;;5033377;28;20057;-60
2021/03/21 04:47:42;;;;;;;5.50;2.35;;;3.60;99.90;;;;;;5035627;28;20046;-60
2021/03/21 04:50:09;;;;;;;6.53;3.90;;;3.60;99.90;;;;;;5017939;28;20175;-61
2021/03/21 04:53:12;;;;;;;6.35;1.65;;;3.60;99.90;;;;;;5036298;28;20053;-60
2021/03/21 04:56:00;;;;;;;4.03;1.50;;;3.60;99.90;;;;;;4966049;28;20138;-60
2021/03/21 04:58:47;;;;;;;8.88;1.83;;;3.60;99.90;;;;;;5036206;28;20044;-61
2021/03/21 05:01:20;;;;;;;6.97;1.40;;;3.60;99.90;;;;;;5034002;28;20059;-63
2021/03/21 05:04:10;;;;;;;7.65;3.33;;;3.60;99.90;;;;;;5031191;28;20056;-63
2021/03/21 05:06:42;;;;;;;8.88;2.55;;;3.50;99.90;;;;;;5034915;28;20053;-59
2021/03/21 05:09:19;;;;;;;4.82;1.63;;;3.50;99.90;;;;;;5046723;28;20052;-58
2021/03/21 05:12:01;;;;;;;3.60;0.90;;;3.50;99.90;;;;;;5054468;28;20074;-61
2021/03/21 05:14:34;;;;;;;7.78;1.77;;;3.50;99.90;;;;;;5055134;28;20563;-60
2021/03/21 05:17:11;;;;;;;5.03;1.10;;;3.50;99.90;;;;;;5051321;28;20064;-61
2021/03/21 05:20:01;;;;;;;8.10;1.95;;;3.40;99.90;;;;;;5050839;28;20098;-59
2021/03/21 05:22:46;;;;;;;7.75;1.35;;;3.40;99.90;;;;;;5055401;28;20463;-61
2021/03/21 05:25:24;;;;;;;5.78;0.88;;;3.40;99.90;;;;;;5052881;28;20082;-61
2021/03/21 05:28:13;;;;;;;3.22;0.65;;;3.40;99.90;;;;;;5052102;28;20211;-61
2021/03/21 05:30:59;;;;;;;2.90;0.90;;;3.30;99.90;;;;;;5052745;28;20047;-62
2021/03/21 05:33:26;;;;;;;4.88;0.95;;;3.30;99.90;;;;;;5053598;28;20052;-59
2021/03/21 05:35:56;;;;;;;2.90;0.75;;;3.30;99.90;;;;;;5053624;28;20131;-63
2021/03/21 05:38:40;;;;;;;4.03;0.88;;;3.30;99.90;;;;;;5053132;28;20041;-59
2021/03/21 05:41:28;;;;;;;1.15;0.80;;;3.30;99.90;;;;;;5051555;28;20106;-63
2021/03/21 05:44:22;;;;;;;5.57;0.95;;;3.30;99.90;;;;;;5051438;28;20057;-60
2021/03/21 05:47:14;;;;;;;6.80;1.00;;;3.30;99.90;;;;;;5054242;28;20071;-59
2021/03/21 05:50:10;;;;;;;1.38;0.77;;;3.30;99.90;;;;;;5054056;28;20056;-61
2021/03/21 05:52:53;;;;;;;6.00;0.82;;;3.30;99.90;;;;;;5051328;28;21399;-61
2021/03/21 05:55:50;;;;;;;6.95;1.60;;;3.30;99.90;;;;;;5055196;28;20649;-60
2021/03/21 05:58:50;;;;;;;1.63;0.93;;;3.40;99.90;;;;;;5049807;28;20060;-60
2021/03/21 06:01:28;;;;;;;4.03;0.88;;;3.40;99.90;;;;;;5054809;28;20067;-61
2021/03/21 06:04:13;;;;;;;3.00;0.98;;;3.40;99.90;;;;;;5047941;28;20492;-58
2021/03/21 06:06:46;;;;;;;3.97;1.83;;;3.50;99.90;;;;;;5052894;28;20074;-62
2021/03/21 06:09:34;;;;;;;0.90;0.63;;;3.50;99.90;;;;;;5031523;28;20084;-62
2021/03/21 06:12:41;;;;;;;6.95;1.52;;;3.50;99.90;;;;;;5030780;28;20079;-61
2021/03/21 06:15:52;;;;;;;6.88;1.40;;;3.50;99.90;;;;;;4973811;28;20052;-61
2021/03/21 06:18:57;;;;;;;4.55;1.90;;;3.40;99.90;;;;;;4955068;28;20500;-63
2021/03/21 06:21:45;;;;;;;4.68;2.10;;;3.40;99.90;;;;;;5032050;28;20083;-62
2021/03/21 06:24:24;;;;;;;3.58;1.15;;;3.40;99.90;;;;;;5029221;28;20522;-62
2021/03/21 06:27:21;;;;;;;7.22;0.93;;;3.40;99.90;;;;;;5035161;28;20131;-61
2021/03/21 06:30:25;;;;;;;11.52;1.10;;;3.40;99.90;;;;;;5026446;28;20449;-61
2021/03/21 06:32:52;;;;;;;2.15;0.90;;;3.40;99.90;;;;;;5029967;28;20136;-61
2021/03/21 06:35:56;;;;;;;5.15;1.30;;;3.40;99.90;;;;;;5031161;28;20418;-58
2021/03/21 06:38:28;;;;;;;3.50;1.15;;;3.40;99.90;;;;;;5030567;28;20066;-60
2021/03/21 06:41:28;;;;;;;4.60;1.10;;;3.40;99.90;;;;;;5031472;28;20060;-60
2021/03/21 06:44:45;;;;;;;9.40;2.67;;;3.40;99.90;;;;;;5028413;28;20107;-61
2021/03/21 06:47:35;;;;;;;8.40;1.30;;;3.40;99.90;;;;;;5008528;28;20061;-61
2021/03/21 06:50:32;;;;;;;3.30;0.40;;;3.50;99.90;;;;;;5027297;28;20060;-59
2021/03/21 06:53:14;;;;;;;4.32;1.25;;;3.50;99.90;;;;;;5032026;28;20590;-62
2021/03/21 06:56:07;;;;;;;4.20;0.90;;;3.50;99.90;;;;;;5033530;28;20060;-60
2021/03/21 06:58:49;;;;;;;8.10;1.50;;;3.50;99.90;;;;;;5003637;28;20049;-62
2021/03/21 07:01:48;;;;;;;5.30;1.15;;;3.50;99.90;;;;;;5027998;28;20502;-63
2021/03/21 07:05:00;;;;;;;3.30;0.57;;;3.50;99.90;;;;;;5017474;28;20049;-58
2021/03/21 07:07:26;;;;;;;4.07;0.47;;;3.50;99.90;;;;;;5033401;28;20391;-60
2021/03/21 07:10:22;;;;;;;3.08;0.55;;;3.50;99.90;;;;;;5051753;28;20135;-61
2021/03/21 07:13:19;;;;;;;6.15;1.10;;;3.50;99.90;;;;;;5025767;28;20061;-61
2021/03/21 07:16:11;;;;;;;6.97;0.95;;;3.50;99.90;;;;;;5051039;28;20041;-62
2021/03/21 07:19:12;;;;;;;7.95;1.05;;;3.50;99.90;;;;;;5017987;28;20128;-62
2021/03/21 07:21:56;;;;;;;;;;;3.60;99.90;;;;;;5053206;28;20052;-58
2021/03/21 07:24:57;;;;;;;5.18;1.00;;;3.50;99.90;;;;;;5048717;28;20275;-61
2021/03/21 07:27:32;;;;;;;6.22;1.27;;;3.60;99.90;;;;;;5038658;28;20522;-61
2021/03/21 07:30:10;;;;;;;7.03;0.95;;;3.50;99.90;;;;;;5048469;28;20520;-62
2021/03/21 07:32:39;;;;;;;3.40;0.90;;;3.60;99.90;;;;;;5052023;28;20053;-62
2021/03/21 07:35:39;;;;;;;2.20;0.73;;;3.60;99.90;;;;;;5045371;28;20135;-61
2021/03/21 07:38:39;;;;;;;2.08;0.90;;;3.60;99.90;;;;;;5053988;28;20060;-62
2021/03/21 07:41:09;;;;;;;8.25;1.67;;;3.60;99.90;;;;;;5052570;28;20094;-64
2021/03/21 07:43:49;;;;;;;3.55;1.10;;;3.60;99.90;;;;;;5059242;28;20044;-59
2021/03/21 07:46:34;;;;;;;3.28;0.75;;;3.60;99.90;;;;;;5055663;28;20072;-60
2021/03/21 07:49:00;;;;;;;7.20;0.80;;;3.60;99.90;;;;;;5044678;28;20044;-63
2021/03/21 07:51:45;;;;;;;10.05;2.22;;;3.70;99.90;;;;;;5053660;28;20099;-64
2021/03/21 07:54:36;;;;;;;4.25;0.60;;;3.70;99.90;;;;;;5056810;28;20444;-58
2021/03/21 07:57:18;;;;;;;6.60;1.45;;;3.80;99.90;;;;;;5056634;28;20153;-58
2021/03/21 07:59:47;;;;;;;5.72;0.80;;;3.70;99.90;;;;;;5057856;28;20469;-63
2021/03/21 08:02:20;;;;;;;3.03;0.60;;;3.80;99.90;;;;;;5055950;28;20060;-62
2021/03/21 08:04:48;;;;;;;1.27;0.65;;;3.80;99.90;;;;;;5058818;28;20048;-61
2021/03/21 08:07:21;;;;;;;1.63;0.90;;;3.80;99.90;;;;;;5057474;28;20049;-65
2021/03/21 08:09:48;;;;;;;6.65;2.33;;;3.80;99.90;;;;;;5033675;28;20071;-62
2021/03/21 08:12:18;;;;;;;4.30;0.80;;;3.80;99.90;;;;;;5035083;28;20063;-62
2021/03/21 08:14:55;;;;;;;3.90;1.33;;;3.80;99.90;;;;;;5034698;28;20041;-62
2021/03/21 08:17:40;;;;;;;2.97;0.88;;;3.80;99.90;;;;;;5034191;28;20064;-61
2021/03/21 08:20:19;;;;;;;7.15;2.80;;;3.80;99.90;;;;;;5016453;28;20048;-62
2021/03/21 08:22:46;;;;;;;2.45;0.70;;;3.80;99.90;;;;;;5034965;28;20781;-61
2021/03/21 08:25:22;;;;;;;5.22;1.10;;;3.90;99.90;;;;;;5031623;28;20052;-62
2021/03/21 08:27:51;;;;;;;2.95;0.77;;;3.90;99.90;;;;;;5032771;28;20504;-64
2021/03/21 08:30:19;;;;;;;5.20;1.08;;;3.90;99.90;;;;;;5033871;28;20494;-64
2021/03/21 08:33:01;;;;;;;7.55;2.55;;;3.90;99.90;;;;;;5036898;28;20045;-62
2021/03/21 08:35:29;;;;;;;3.53;1.23;;;3.90;99.90;;;;;;5033164;28;20095;-62
2021/03/21 08:38:23;;;;;;;6.03;1.25;;;4.00;99.90;;;;;;5031241;28;20127;-64
2021/03/21 08:40:59;;;;;;;3.92;1.10;;;4.00;99.90;;;;;;5033801;28;20049;-63
2021/03/21 08:43:29;;;;;;;7.88;1.73;;;4.00;99.90;;;;;;5037888;28;20061;-62
2021/03/21 08:45:56;;;;;;;4.93;2.50;;;4.00;99.90;;;;;;5032808;28;20470;-62
2021/03/21 08:48:32;;;;;;;4.30;0.70;;;4.00;99.90;;;;;;5035193;28;20493;-62
2021/03/21 08:51:11;;;;;;;9.82;1.08;;;4.00;99.90;;;;;;5033122;28;20111;-62
2021/03/21 08:53:52;;;;;;;3.33;1.08;;;4.00;99.90;;;;;;5033333;28;20060;-62
2021/03/21 08:56:20;;;;;;;9.23;1.30;;;4.00;99.90;;;;;;5031692;28;20041;-62
2021/03/21 08:59:20;;;;;;;5.00;1.40;;;4.10;99.90;;;;;;5033144;28;20045;-61
2021/03/21 09:01:58;;;;;;;4.25;1.08;;;4.10;99.90;;;;;;5031793;28;20442;-64
2021/03/21 09:04:26;;;;;;;1.83;0.70;;;4.10;99.90;;;;;;5035085;28;20132;-64
2021/03/21 09:06:54;;;;;;;3.33;0.85;;;4.10;99.90;;;;;;5034483;28;20556;-62
2021/03/21 09:09:22;;;;;;;7.03;1.60;;;4.10;99.90;;;;;;5031454;28;20053;-64
2021/03/21 09:11:55;;;;;;;6.78;0.95;;;4.10;99.90;;;;;;5033378;28;20483;-62
2021/03/21 09:14:34;;;;;;;2.05;0.98;;;4.20;99.90;;;;;;5034193;28;20147;-63
2021/03/21 09:17:06;;;;;;;4.03;1.23;;;4.20;99.90;;;;;;5032493;28;20647;-64
2021/03/21 09:19:36;;;;;;;4.57;1.52;;;4.20;99.90;;;;;;5031137;28;20083;-62
2021/03/21 09:22:12;;;;;;;2.97;0.77;;;4.30;99.90;;;;;;5033645;28;20037;-62
2021/03/21 09:24:40;;;;;;;2.65;0.77;;;4.30;99.90;;;;;;5033124;28;20098;-62
2021/03/21 09:27:31;;;;;;;4.35;1.23;;;4.30;99.90;;;;;;5033573;28;20422;-65
2021/03/21 09:29:59;;;;;;;6.68;1.30;;;4.30;99.90;;;;;;5030647;28;20702;-62
2021/03/21 09:32:30;;;;;;;6.28;1.25;;;4.30;99.90;;;;;;5032018;28;20394;-63
2021/03/21 09:35:12;;;;;;;4.03;0.77;;;4.30;99.90;;;;;;5030590;28;20052;-60
2021/03/21 09:37:41;;;;;;;2.65;1.30;;;4.40;99.90;;;;;;5030570;28;20045;-62
2021/03/21 09:40:29;;;;;;;3.60;1.52;;;4.40;99.90;;;;;;5031302;28;20077;-61
2021/03/21 09:42:58;;;;;;;6.03;2.95;;;4.40;99.90;;;;;;5033161;28;20053;-62
2021/03/21 09:45:25;;;;;;;5.60;0.80;;;4.40;99.90;;;;;;5033447;28;20060;-63
2021/03/21 09:48:01;;;;;;;2.15;1.30;;;4.40;99.90;;;;;;5032024;28;20064;-63
2021/03/21 09:50:59;;;;;;;15.50;2.80;;;4.40;99.90;;;;;;5031859;28;20548;-60
2021/03/21 09:53:46;;;;;;;4.82;1.25;;;4.40;99.90;;;;;;5031965;28;20609;-65
2021/03/21 09:56:24;;;;;;;4.88;0.90;;;4.50;99.90;;;;;;5031547;28;20076;-65
2021/03/21 09:59:18;;;;;;;6.78;1.05;;;4.60;99.90;;;;;;5032756;28;20513;-62
2021/03/21 10:02:14;;;;;;;3.90;0.73;;;4.70;99.90;;;;;;5029732;28;20052;-62
2021/03/21 10:04:49;;;;;;;5.78;1.08;;;4.70;99.90;;;;;;5027947;28;20060;-62
2021/03/21 10:08:03;;;;;;;8.70;1.38;;;4.70;99.90;;;;;;5032057;28;20182;-65
2021/03/21 10:10:34;;;;;;;2.80;0.95;;;4.60;99.90;;;;;;5032581;28;20053;-59
2021/03/21 10:13:01;;;;;;;5.78;1.17;;;4.60;99.90;;;;;;5032555;28;20067;-66
2021/03/21 10:15:28;;;;;;;6.30;0.82;;;4.60;99.90;;;;;;5029719;28;21510;-62
2021/03/21 10:18:01;;;;;;;2.13;0.98;;;4.60;99.90;;;;;;5031572;28;20053;-60
2021/03/21 10:21:03;;;;;;;4.18;0.82;;;4.60;99.90;;;;;;5029815;28;20399;-63
2021/03/21 10:23:51;;;;;;;2.58;0.60;;;4.60;99.90;;;;;;5008191;28;20053;-65
2021/03/21 10:26:22;;;;;;;5.60;0.73;;;4.60;99.90;;;;;;5030570;28;20060;-64
2021/03/21 10:28:54;;;;;;;8.02;0.82;;;4.60;99.90;;;;;;5031368;28;20074;-62
2021/03/21 10:31:23;;;;;;;3.85;2.05;;;4.60;99.90;;;;;;5031632;28;20419;-61
2021/03/21 10:34:11;;;;;;;6.20;0.70;;;4.70;99.90;;;;;;5030239;28;20411;-65
2021/03/21 10:36:39;;;;;;;3.67;0.80;;;4.60;99.90;;;;;;5029776;28;20045;-63
2021/03/21 10:39:05;;;;;;;3.53;1.13;;;4.60;99.90;;;;;;5033655;28;20072;-59
2021/03/21 10:42:01;;;;;;;8.52;1.00;;;4.70;99.90;;;;;;5031549;28;20053;-60
2021/03/21 10:44:30;;;;;;;4.07;1.70;;;4.70;99.90;;;;;;5033894;28;20053;-61
2021/03/21 10:47:26;;;;;;;6.28;0.77;;;4.70;99.90;;;;;;5032275;28;20501;-62
2021/03/21 10:50:00;;;;;;;4.43;1.48;;;4.70;99.90;;;;;;5010785;28;20099;-63
2021/03/21 10:52:38;;;;;;;5.47;0.88;;;4.80;99.90;;;;;;5031243;28;20572;-61
2021/03/21 10:55:10;;;;;;;4.82;0.95;;;4.80;99.90;;;;;;5034747;28;20044;-65
2021/03/21 10:57:46;;;;;;;7.03;1.23;;;4.90;99.90;;;;;;5029463;28;20130;-64
2021/03/21 11:00:26;;;;;;;3.92;0.75;;;4.90;99.90;;;;;;5034213;28;20148;-63
2021/03/21 11:03:01;;;;;;;4.63;2.25;;;4.90;99.90;;;;;;5029685;28;20802;-63
2021/03/21 11:05:47;;;;;;;2.53;1.48;;;4.80;99.90;;;;;;5034701;28;20040;-64
2021/03/21 11:08:13;;;;;;;4.60;1.30;;;4.90;99.90;;;;;;5028579;28;20045;-62
2021/03/21 11:10:45;;;;;;;3.58;1.45;;;5.00;99.90;;;;;;5034623;28;20693;-68
2021/03/21 11:13:25;;;;;;;11.13;4.32;;;5.00;99.90;;;;;;5031115;28;20141;-64
2021/03/21 11:15:52;;;;;;;3.58;1.63;;;5.00;99.90;;;;;;5034664;28;20052;-67
2021/03/21 11:18:23;;;;;;;3.17;1.80;;;5.00;99.90;;;;;;5033753;28;20122;-65
2021/03/21 11:21:20;;;;;;;5.38;1.13;;;5.00;99.90;;;;;;5038358;28;20052;-67
2021/03/21 11:23:49;;;;;;;2.97;0.70;;;5.00;99.90;;;;;;5032500;28;20059;-61
2021/03/21 11:26:25;;;;;;;4.05;0.65;;;5.10;99.90;;;;;;5034359;28;20062;-65
2021/03/21 11:28:53;;;;;;;1.27;0.57;;;5.20;99.90;;;;;;5033847;28;20160;-63
2021/03/21 11:32:00;;;;;;;9.68;1.75;;;5.10;99.90;;;;;;5032457;28;20061;-62
2021/03/21 11:34:29;;;;;;;4.43;1.35;;;5.20;99.90;;;;;;5032547;28;20726;-65
2021/03/21 11:37:06;;;;;;;2.63;0.90;;;5.30;99.90;;;;;;5036738;28;20140;-64
2021/03/21 11:39:40;;;;;;;5.32;1.52;;;5.20;99.90;;;;;;5034454;28;20045;-65
2021/03/21 11:42:37;;;;;;;5.85;1.42;;;5.20;99.90;;;;;;5037389;28;20050;-63
2021/03/21 11:45:28;;;;;;;3.88;0.93;;;5.30;99.90;;;;;;5038269;28;20061;-67
2021/03/21 11:47:56;;;;;;;;;;;5.20;99.90;;;;;;5021813;28;20665;-63
2021/03/21 11:50:28;;;;;;;6.82;1.05;;;5.20;99.90;;;;;;5034751;28;19925;-62
2021/03/21 11:52:56;;;;;;;5.05;1.30;;;5.20;99.90;;;;;;5036848;28;20517;-64
2021/03/21 11:55:29;;;;;;;5.63;1.98;;;5.10;99.90;;;;;;5035803;28;20138;-67
2021/03/21 11:58:07;;;;;;;2.22;1.00;;;5.10;99.90;;;;;;5033864;28;20048;-62
2021/03/21 12:00:37;;;;;;;5.03;1.98;;;5.20;99.90;;;;;;5035571;28;20045;-64
2021/03/21 12:03:24;;;;;;;4.90;1.30;;;5.20;99.90;;;;;;5031225;28;20060;-63
2021/03/21 12:06:27;;;;;;;4.35;1.45;;;5.20;99.90;;;;;;5030784;28;20800;-63
2021/03/21 12:08:55;;;;;;;4.55;1.20;;;5.30;99.90;;;;;;5022380;28;20175;-63
2021/03/21 12:11:24;;;;;;;3.90;1.67;;;5.30;99.90;;;;;;5034383;28;20588;-62
2021/03/21 12:14:14;;;;;;;7.25;2.25;;;5.30;99.90;;;;;;5031145;28;22566;-65
2021/03/21 12:16:43;;;;;;;3.03;1.27;;;5.30;99.90;;;;;;5032742;28;20060;-65
2021/03/21 12:19:31;;;;;;;11.95;1.20;;;5.30;99.90;;;;;;5038888;28;20056;-64
2021/03/21 12:22:06;;;;;;;10.20;1.75;;;5.50;99.90;;;;;;5031696;28;20142;-63
2021/03/21 12:24:34;;;;;;;6.20;0.73;;;5.40;99.90;;;;;;5034004;28;20454;-63
2021/03/21 12:27:02;;;;;;;4.70;0.73;;;5.30;99.90;;;;;;5034782;28;20541;-64
2021/03/21 12:29:38;;;;;;;2.88;1.13;;;5.50;99.90;;;;;;5037723;28;20045;-63
2021/03/21 12:32:37;;;;;;;8.80;1.33;;;5.40;99.90;;;;;;5030918;28;20049;-65
2021/03/21 12:35:24;;;;;;;5.90;1.13;;;5.30;99.90;;;;;;5022975;28;20048;-65
2021/03/21 12:38:02;;;;;;;2.70;0.93;;;5.30;99.90;;;;;;5028940;28;20079;-63
2021/03/21 12:40:43;;;;;;;7.57;1.02;;;5.30;99.90;;;;;;5033170;28;20592;-62
2021/03/21 12:43:30;;;;;;;5.55;1.10;;;5.20;99.90;;;;;;5031993;28;20057;-66
2021/03/21 12:46:04;;;;;;;3.05;1.27;;;5.30;99.90;;;;;;5033019;28;20053;-63
2021/03/21 12:48:43;;;;;;;6.25;0.90;;;5.30;99.90;;;;;;5033763;28;20045;-66
2021/03/21 12:51:24;;;;;;;3.67;0.73;;;5.20;99.90;;;;;;5031384;28;20072;-64
2021/03/21 12:53:50;;;;;;;7.80;1.00;;;5.30;99.90;;;;;;5032858;28;20546;-63
2021/03/21 12:56:17;;;;;;;4.45;1.27;;;5.40;99.90;;;;;;5034720;28;20123;-66
2021/03/21 12:58:43;;;;;;;3.58;1.33;;;5.40;99.90;;;;;;5035247;28;20058;-64
2021/03/21 13:01:10;;;;;;;1.80;0.65;;;5.30;99.90;;;;;;5029418;28;20474;-62
2021/03/21 13:03:37;;;;;;;2.08;0.68;;;5.30;99.90;;;;;;5028710;28;20048;-67
2021/03/21 13:06:05;;;;;;;8.75;1.02;;;5.30;99.90;;;;;;5031122;28;20068;-65
2021/03/21 13:08:32;;;;;;;2.75;0.73;;;5.30;99.90;;;;;;5033469;28;20850;-67
2021/03/21 13:11:00;;;;;;;3.83;1.35;;;5.40;99.90;;;;;;5032201;28;20121;-64
2021/03/21 13:13:27;;;;;;;8.57;1.17;;;5.50;99.90;;;;;;5038539;28;20099;-66
2021/03/21 13:15:55;;;;;;;4.43;0.70;;;5.60;99.90;;;;;;5017895;28;20064;-67
2021/03/21 13:18:22;;;;;;;8.05;1.10;;;5.60;99.90;;;;;;5024963;28;20053;-62
2021/03/21 13:20:53;;;;;;;3.97;0.77;;;5.60;99.90;;;;;;5029584;28;20045;-67
2021/03/21 13:23:21;;;;;;;9.40;1.40;;;5.50;99.90;;;;;;5028388;28;20486;-66
2021/03/21 13:25:47;;;;;;;2.03;0.70;;;5.70;99.90;;;;;;5030161;28;20870;-65
2021/03/21 13:28:14;;;;;;;3.28;0.57;;;5.80;99.90;;;;;;5033124;28;20126;-63
2021/03/21 13:30:43;;;;;;;4.00;0.98;;;5.80;99.90;;;;;;5034305;28;20061;-66
2021/03/21 13:33:23;;;;;;;2.85;0.57;;;5.80;99.90;;;;;;5006365;28;20091;-67
2021/03/21 13:35:52;;;;;;;3.72;1.23;;;5.70;99.90;;;;;;5031921;28;20068;-63
2021/03/21 13:38:20;;;;;;;5.47;1.00;;;5.70;99.90;;;;;;5029937;28;20057;-64
2021/03/21 13:40:47;;;;;;;2.90;0.50;;;5.80;99.90;;;;;;5029828;28;20053;-62
2021/03/21 13:43:19;;;;;;;1.13;0.82;;;6.00;99.90;;;;;;5031230;28;20953;-61
2021/03/21 13:45:46;;;;;;;2.35;0.63;;;6.00;99.90;;;;;;5034897;28;20414;-65
2021/03/21 13:48:13;;;;;;;1.25;0.80;;;6.10;99.90;;;;;;5031485;28;20854;-61
2021/03/21 13:50:42;;;;;;;4.10;0.95;;;6.10;99.90;;;;;;5045873;28;20103;-62
2021/03/21 13:53:12;;;;;;;4.50;1.83;;;6.20;99.90;;;;;;5028377;28;20166;-67
2021/03/21 13:55:41;;;;;;;2.77;1.10;;;6.00;99.90;;;;;;5033616;28;20406;-65